Fernley, Nevada
Current Conditions -  °F | °C
As of 10:55 PM on Tuesday 21 Oct 2014 (Local Time) from KRNO Reporting Station
Broken Clouds Broken Clouds  
Wind Chill: 48°   Ceiling: 20000
Heat Index: 48°   Visibility: 10mi
Dew Point: 30°   Wind: 0mph
Humidity: 50%   Direction: NA
Pressure: 30.11"   Gusts: NA
Location:  39.6°N, 119.24°W
Report Text: KRNO 220555Z 00000KT 10SM BKN200 09/M01 A3011 RMK AO2 SLP175 T00891011 10167 20089 51011
Loading
Personal Weather Stations






























Interactive Weather Map
Tropical Storm Tracking
New forecast layout! Learn more

10-Day Weather Forecast

Advertisements
Track Severe Weather on mobile